Time;durP1;ratioP1;P1;durP2;ratioP2;P2;SDS_P1;SDS_P2;PMS_P1;PMS_P2;Temp;Humidity;BMP_temperature;BMP_pressure;BME280_temperature;BME280_humidity;BME280_pressure;Samples;Min_cycle;Max_cycle;Signal;HPM_P1;HPM_P2
2023/05/28 00:02:13;;;;;;;;;;;;;;;;;;5044015;28;19915;-58
2023/05/28 00:04:38;;;;;;;;;;;;;;;;;;5045128;28;20015;-58
2023/05/28 00:07:05;;;;;;;;;;;;;;;;;;5045956;28;19956;-58
2023/05/28 00:09:30;;;;;;;;;;;;;;;;;;5047360;28;20392;-60
2023/05/28 00:11:56;;;;;;;;;;;;;;;;;;5047011;28;20401;-58
2023/05/28 00:14:22;;;;;;;;;;;;;;;;;;5047325;28;20323;-61
2023/05/28 00:16:50;;;;;;;;;;;;;;;;;;5043735;28;19912;-58
2023/05/28 00:19:17;;;;;;;;;;;;;;;;;;5047531;28;19984;-59
2023/05/28 00:21:43;;;;;;;;;;;;;;;;;;5043555;28;20362;-59
2023/05/28 00:24:08;;;;;;;;;;;;;;;;;;5045225;28;19971;-59
2023/05/28 00:26:36;;;;;;;;;;;;;;;;;;5045402;28;19978;-59
2023/05/28 00:29:02;;;;;;;;;;;;;;;;;;5046883;28;20296;-59
2023/05/28 00:31:28;;;;;;;;;;;;;;;;;;5042893;28;19912;-59
2023/05/28 00:33:56;;;;;;;;;;;;;;;;;;5043647;28;20011;-59
2023/05/28 00:36:22;;;;;;;;;;;;;;;;;;5045215;28;20648;-59
2023/05/28 00:38:48;;;;;;;;;;;;;;;;;;5043012;28;19909;-59
2023/05/28 00:41:14;;;;;;;;;;;;;;;;;;5046893;28;19966;-59
2023/05/28 00:43:40;;;;;;;;;;;;;;;;;;5047376;28;20416;-59
2023/05/28 00:46:06;;;;;;;;;;;;;;;;;;5047110;28;19999;-59
2023/05/28 00:48:32;;;;;;;;;;;;;;;;;;5045433;28;19948;-59
2023/05/28 00:50:58;;;;;;;;;;;;;;;;;;5039525;28;19940;-60
2023/05/28 00:53:24;;;;;;;;;;;;;;;;;;5045413;28;20080;-59
2023/05/28 00:55:50;;;;;;;;;;;;;;;;;;5044515;28;19908;-59
2023/05/28 00:58:19;;;;;;;;;;;;;;;;;;5046819;28;20015;-59
2023/05/28 01:00:45;;;;;;;;;;;;;;;;;;5043872;28;20157;-59
2023/05/28 01:03:11;;;;;;;;;;;;;;;;;;5047021;28;19912;-59
2023/05/28 01:05:37;;;;;;;;;;;;;;;;;;5044691;28;19951;-59
2023/05/28 01:08:03;;;;;;;;;;;;;;;;;;5046546;28;20003;-59
2023/05/28 01:10:28;;;;;;;;;;;;;;;;;;5046881;28;20404;-59
2023/05/28 01:12:56;;;;;;;;;;;;;;;;;;5029311;28;20402;-59
2023/05/28 01:15:23;;;;;;;;;;;;;;;;;;5041231;28;20108;-59
2023/05/28 01:17:49;;;;;;;;;;;;;;;;;;5044653;28;20004;-59
2023/05/28 01:20:15;;;;;;;;;;;;;;;;;;5043348;28;20020;-59
2023/05/28 01:22:41;;;;;;;;;;;;;;;;;;5046889;28;20012;-59
2023/05/28 01:25:09;;;;;;;;;;;;;;;;;;5043414;28;20357;-59
2023/05/28 01:27:35;;;;;;;;;;;;;;;;;;5043202;28;20292;-59
2023/05/28 01:30:01;;;;;;;;;;;;;;;;;;5042127;28;19921;-59
2023/05/28 01:32:27;;;;;;;;;;;;;;;;;;5044075;28;19944;-58
2023/05/28 01:34:53;;;;;;;;;;;;;;;;;;5043530;28;20360;-58
2023/05/28 01:37:19;;;;;;;;;;;;;;;;;;5046359;28;20419;-59
2023/05/28 01:39:45;;;;;;;;;;;;;;;;;;5044899;28;20392;-58
2023/05/28 01:42:11;;;;;;;;;;;;;;;;;;5047200;28;19952;-59
2023/05/28 01:44:37;;;;;;;;;;;;;;;;;;5043772;28;20013;-58
2023/05/28 01:47:03;;;;;;;;;;;;;;;;;;5045302;28;20028;-58
2023/05/28 01:49:29;;;;;;;;;;;;;;;;;;5042971;28;19932;-59
2023/05/28 01:51:55;;;;;;;;;;;;;;;;;;5045296;28;20230;-58
2023/05/28 01:54:21;;;;;;;;;;;;;;;;;;5039883;28;19927;-58
2023/05/28 01:56:47;;;;;;;;;;;;;;;;;;5046411;28;20007;-58
2023/05/28 01:59:13;;;;;;;;;;;;;;;;;;5044375;28;20003;-58
2023/05/28 02:01:39;;;;;;;;;;;;;;;;;;5040730;28;19952;-58
2023/05/28 02:04:05;;;;;;;;;;;;;;;;;;5044269;28;19984;-59
2023/05/28 02:06:31;;;;;;;;;;;;;;;;;;5042563;28;20696;-58
2023/05/28 02:08:57;;;;;;;;;;;;;;;;;;5046826;28;20062;-58
2023/05/28 02:11:23;;;;;;;;;;;;;;;;;;5044281;28;20355;-58
2023/05/28 02:13:49;;;;;;;;;;;;;;;;;;5049798;28;19952;-58
2023/05/28 02:16:18;;;;;;;;;;;;;;;;;;5046870;28;20039;-58
2023/05/28 02:18:44;;;;;;;;;;;;;;;;;;5050521;28;19940;-58
2023/05/28 02:21:10;;;;;;;;;;;;;;;;;;5048529;28;19935;-58
2023/05/28 02:23:36;;;;;;;;;;;;;;;;;;5045098;28;19908;-58
2023/05/28 02:26:02;;;;;;;;;;;;;;;;;;5049695;28;20317;-58
2023/05/28 02:28:28;;;;;;;;;;;;;;;;;;5046642;28;20035;-59
2023/05/28 02:30:55;;;;;;;;;;;;;;;;;;5046156;28;19917;-58
2023/05/28 02:33:21;;;;;;;;;;;;;;;;;;5049217;28;19908;-58
2023/05/28 02:35:47;;;;;;;;;;;;;;;;;;5045959;28;19991;-58
2023/05/28 02:38:13;;;;;;;;;;;;;;;;;;5048616;28;20334;-58
2023/05/28 02:40:39;;;;;;;;;;;;;;;;;;5049306;28;19915;-58
2023/05/28 02:43:05;;;;;;;;;;;;;;;;;;5047850;28;20035;-58
2023/05/28 02:45:31;;;;;;;;;;;;;;;;;;5045665;28;19940;-58
2023/05/28 02:47:57;;;;;;;;;;;;;;;;;;5048486;28;19947;-58
2023/05/28 02:50:23;;;;;;;;;;;;;;;;;;5047314;28;19971;-58
2023/05/28 02:52:49;;;;;;;;;;;;;;;;;;5047961;28;19947;-58
2023/05/28 02:55:15;;;;;;;;;;;;;;;;;;5046384;28;20007;-58
2023/05/28 02:57:41;;;;;;;;;;;;;;;;;;5048711;28;20419;-58
2023/05/28 03:00:10;;;;;;;;;;;;;;;;;;5047988;28;20287;-58
2023/05/28 03:02:36;;;;;;;;;;;;;;;;;;5039549;28;20015;-58
2023/05/28 03:05:02;;;;;;;;;;;;;;;;;;5046362;28;20439;-59
2023/05/28 03:07:28;;;;;;;;;;;;;;;;;;5047240;28;19917;-58
2023/05/28 03:09:54;;;;;;;;;;;;;;;;;;5048832;28;20368;-58
2023/05/28 03:12:20;;;;;;;;;;;;;;;;;;5023603;28;19909;-58
2023/05/28 03:14:46;;;;;;;;;;;;;;;;;;5045463;28;19916;-58
2023/05/28 03:17:12;;;;;;;;;;;;;;;;;;5046830;28;19955;-58
2023/05/28 03:19:38;;;;;;;;;;;;;;;;;;5049433;28;19955;-58
2023/05/28 03:22:04;;;;;;;;;;;;;;;;;;5044992;28;19996;-58
2023/05/28 03:24:30;;;;;;;;;;;;;;;;;;5038910;28;19919;-58
2023/05/28 03:26:56;;;;;;;;;;;;;;;;;;5043869;28;19976;-58
2023/05/28 03:29:22;;;;;;;;;;;;;;;;;;5047051;28;20375;-59
2023/05/28 03:31:48;;;;;;;;;;;;;;;;;;5043679;28;19950;-58
2023/05/28 03:34:14;;;;;;;;;;;;;;;;;;5041238;28;19921;-58
2023/05/28 03:36:40;;;;;;;;;;;;;;;;;;5044038;28;19909;-58
2023/05/28 03:39:06;;;;;;;;;;;;;;;;;;5047980;28;19954;-59
2023/05/28 03:41:32;;;;;;;;;;;;;;;;;;5043262;28;20032;-59
2023/05/28 03:43:58;;;;;;;;;;;;;;;;;;5047297;28;19913;-58
2023/05/28 03:46:24;;;;;;;;;;;;;;;;;;5046458;28;19986;-58
2023/05/28 03:48:50;;;;;;;;;;;;;;;;;;5044712;28;19909;-59
2023/05/28 03:51:16;;;;;;;;;;;;;;;;;;5041227;28;19995;-59
2023/05/28 03:53:42;;;;;;;;;;;;;;;;;;5043091;28;19916;-59
2023/05/28 03:56:08;;;;;;;;;;;;;;;;;;5043034;28;19941;-58
2023/05/28 03:58:34;;;;;;;;;;;;;;;;;;5047526;28;19947;-59
2023/05/28 04:01:00;;;;;;;;;;;;;;;;;;5042928;28;19990;-59
2023/05/28 04:03:26;;;;;;;;;;;;;;;;;;5047579;28;20340;-58
2023/05/28 04:05:52;;;;;;;;;;;;;;;;;;5042898;28;19917;-59
2023/05/28 04:08:18;;;;;;;;;;;;;;;;;;5047993;28;19920;-59
2023/05/28 04:10:44;;;;;;;;;;;;;;;;;;5047979;28;20237;-58
2023/05/28 04:13:10;;;;;;;;;;;;;;;;;;5044216;28;20352;-59
2023/05/28 04:15:36;;;;;;;;;;;;;;;;;;5044782;28;19913;-59
2023/05/28 04:18:02;;;;;;;;;;;;;;;;;;5047367;28;19962;-58
2023/05/28 04:20:29;;;;;;;;;;;;;;;;;;5040595;28;20388;-58
2023/05/28 04:22:55;;;;;;;;;;;;;;;;;;5038810;28;19908;-58
2023/05/28 04:25:21;;;;;;;;;;;;;;;;;;5040954;28;20033;-58
2023/05/28 04:27:47;;;;;;;;;;;;;;;;;;5046585;28;19968;-58
2023/05/28 04:30:13;;;;;;;;;;;;;;;;;;5045621;28;19946;-58
2023/05/28 04:32:39;;;;;;;;;;;;;;;;;;5043690;28;19994;-58
2023/05/28 04:35:05;;;;;;;;;;;;;;;;;;5047004;28;19956;-58
2023/05/28 04:37:33;;;;;;;;;;;;;;;;;;5040982;28;19924;-58
2023/05/28 04:39:59;;;;;;;;;;;;;;;;;;5047108;28;19909;-58
2023/05/28 04:42:25;;;;;;;;;;;;;;;;;;5040665;28;20105;-58
2023/05/28 04:44:53;;;;;;;;;;;;;;;;;;5045350;28;19970;-58
2023/05/28 04:47:19;;;;;;;;;;;;;;;;;;5045671;28;20352;-58
2023/05/28 04:49:45;;;;;;;;;;;;;;;;;;5045556;28;20001;-58
2023/05/28 04:52:11;;;;;;;;;;;;;;;;;;5044702;28;19947;-58
2023/05/28 04:54:37;;;;;;;;;;;;;;;;;;5039910;28;19959;-58
2023/05/28 04:57:04;;;;;;;;;;;;;;;;;;5043032;28;20351;-58
2023/05/28 04:59:30;;;;;;;;;;;;;;;;;;5047339;28;20054;-58
2023/05/28 05:01:56;;;;;;;;;;;;;;;;;;5044815;28;19909;-58
2023/05/28 05:04:22;;;;;;;;;;;;;;;;;;5044553;28;19943;-58
2023/05/28 05:06:48;;;;;;;;;;;;;;;;;;5044786;28;19951;-58
2023/05/28 05:09:14;;;;;;;;;;;;;;;;;;5046856;28;19917;-59
2023/05/28 05:11:40;;;;;;;;;;;;;;;;;;5046732;28;19917;-58
2023/05/28 05:14:06;;;;;;;;;;;;;;;;;;5046395;28;19946;-58
2023/05/28 05:16:32;;;;;;;;;;;;;;;;;;5044860;28;20001;-58
2023/05/28 05:18:58;;;;;;;;;;;;;;;;;;5046494;28;20249;-61
2023/05/28 05:21:24;;;;;;;;;;;;;;;;;;5046339;28;19973;-58
2023/05/28 05:23:50;;;;;;;;;;;;;;;;;;5039655;28;19916;-58
2023/05/28 05:26:17;;;;;;;;;;;;;;;;;;5044157;28;19944;-58
2023/05/28 05:28:43;;;;;;;;;;;;;;;;;;5052761;28;20394;-58
2023/05/28 05:31:11;;;;;;;;;;;;;;;;;;5061986;28;19928;-57
2023/05/28 05:33:37;;;;;;;;;;;;;;;;;;5062229;28;19913;-59
2023/05/28 05:36:03;;;;;;;;;;;;;;;;;;5065845;28;19958;-58
2023/05/28 05:38:29;;;;;;;;;;;;;;;;;;5063063;28;19999;-58
2023/05/28 05:40:55;;;;;;;;;;;;;;;;;;5066000;28;20340;-58
2023/05/28 05:43:21;;;;;;;;;;;;;;;;;;5063804;28;19908;-58
2023/05/28 05:45:47;;;;;;;;;;;;;;;;;;5065484;28;20078;-58
2023/05/28 05:48:13;;;;;;;;;;;;;;;;;;5067915;28;19952;-58
2023/05/28 05:50:40;;;;;;;;;;;;;;;;;;5074111;28;20034;-59
2023/05/28 05:53:06;;;;;;;;;;;;;;;;;;5066621;28;19916;-59
2023/05/28 05:55:32;;;;;;;;;;;;;;;;;;5072798;28;20291;-58
2023/05/28 05:57:59;;;;;;;;;;;;;;;;;;5071373;28;20309;-59
2023/05/28 06:00:25;;;;;;;;;;;;;;;;;;5071877;28;19916;-59
2023/05/28 06:02:51;;;;;;;;;;;;;;;;;;5069060;28;20034;-58
2023/05/28 06:05:17;;;;;;;;;;;;;;;;;;5072199;28;19942;-59
2023/05/28 06:07:43;;;;;;;;;;;;;;;;;;5067901;28;19951;-59
2023/05/28 06:10:09;;;;;;;;;;;;;;;;;;5061033;28;20010;-58
2023/05/28 06:12:35;;;;;;;;;;;;;;;;;;5070154;28;19967;-58
2023/05/28 06:15:01;;;;;;;;;;;;;;;;;;5068770;28;20402;-59
2023/05/28 06:17:26;;;;;;;;;;;;;;;;;;5072318;28;19955;-58
2023/05/28 06:19:53;;;;;;;;;;;;;;;;;;5069203;28;19909;-58
2023/05/28 06:22:19;;;;;;;;;;;;;;;;;;5068299;28;19915;-58
2023/05/28 06:24:45;;;;;;;;;;;;;;;;;;5067603;28;19995;-58
2023/05/28 06:27:11;;;;;;;;;;;;;;;;;;5066799;28;19912;-58
2023/05/28 06:29:37;;;;;;;;;;;;;;;;;;5066639;28;20469;-58
2023/05/28 06:32:03;;;;;;;;;;;;;;;;;;5069076;28;20344;-58
2023/05/28 06:34:29;;;;;;;;;;;;;;;;;;5072410;28;19916;-58
2023/05/28 06:36:55;;;;;;;;;;;;;;;;;;5067468;28;20046;-58
2023/05/28 06:39:22;;;;;;;;;;;;;;;;;;5066348;28;19928;-58
2023/05/28 06:41:47;;;;;;;;;;;;;;;;;;5069397;28;20411;-59
2023/05/28 06:44:13;;;;;;;;;;;;;;;;;;5065791;28;19940;-58
2023/05/28 06:46:39;;;;;;;;;;;;;;;;;;5066362;28;19944;-58
2023/05/28 06:49:06;;;;;;;;;;;;;;;;;;5068064;28;20336;-58
2023/05/28 06:51:32;;;;;;;;;;;;;;;;;;5058235;28;20288;-58
2023/05/28 06:53:58;;;;;;;;;;;;;;;;;;5067769;28;19960;-59
2023/05/28 06:56:26;;;;;;;;;;;;;;;;;;5046458;28;19915;-60
2023/05/28 06:58:52;;;;;;;;;;;;;;;;;;5065995;28;19908;-60
2023/05/28 07:01:18;;;;;;;;;;;;;;;;;;5064564;28;20003;-60
2023/05/28 07:03:44;;;;;;;;;;;;;;;;;;5068191;28;19916;-60
2023/05/28 07:06:10;;;;;;;;;;;;;;;;;;5068899;28;19912;-59
2023/05/28 07:08:40;;;;;;;;;;;;;;;;;;5067786;28;19951;-60
2023/05/28 07:11:08;;;;;;;;;;;;;;;;;;5065071;28;19916;-60
2023/05/28 07:13:34;;;;;;;;;;;;;;;;;;5066500;28;19908;-59
2023/05/28 07:16:00;;;;;;;;;;;;;;;;;;5068326;28;19987;-59
2023/05/28 07:18:26;;;;;;;;;;;;;;;;;;5061365;28;20351;-60
2023/05/28 07:20:52;;;;;;;;;;;;;;;;;;5066955;28;19956;-60
2023/05/28 07:23:18;;;;;;;;;;;;;;;;;;5066460;28;19971;-59
2023/05/28 07:25:44;;;;;;;;;;;;;;;;;;5064699;28;20237;-58
2023/05/28 07:28:10;;;;;;;;;;;;;;;;;;5049728;28;19935;-56
2023/05/28 07:30:37;;;;;;;;;;;;;;;;;;5068445;28;19909;-56
2023/05/28 07:33:03;;;;;;;;;;;;;;;;;;5067656;28;19920;-56
2023/05/28 07:35:29;;;;;;;;;;;;;;;;;;5068108;28;20020;-56
2023/05/28 07:37:55;;;;;;;;;;;;;;;;;;5066047;28;19916;-55
2023/05/28 07:40:21;;;;;;;;;;;;;;;;;;5064328;28;20251;-55
2023/05/28 07:42:48;;;;;;;;;;;;;;;;;;5067139;28;19912;-64
2023/05/28 07:45:14;;;;;;;;;;;;;;;;;;5061757;28;19915;-55
2023/05/28 07:47:40;;;;;;;;;;;;;;;;;;5067333;28;19912;-56
2023/05/28 07:50:06;;;;;;;;;;;;;;;;;;5066318;28;19916;-56
2023/05/28 07:52:32;;;;;;;;;;;;;;;;;;5067408;28;19951;-56
2023/05/28 07:54:58;;;;;;;;;;;;;;;;;;5066753;28;19970;-56
2023/05/28 07:57:24;;;;;;;;;;;;;;;;;;5065003;28;21320;-55
2023/05/28 07:59:50;;;;;;;;;;;;;;;;;;5066793;28;19919;-56
2023/05/28 08:02:16;;;;;;;;;;;;;;;;;;5066426;28;19912;-55
2023/05/28 08:04:42;;;;;;;;;;;;;;;;;;5066585;28;19912;-55
2023/05/28 08:07:10;;;;;;;;;;;;;;;;;;5068426;28;20308;-55
2023/05/28 08:09:36;;;;;;;;;;;;;;;;;;5066909;28;19913;-56
2023/05/28 08:12:02;;;;;;;;;;;;;;;;;;5066816;28;19912;-55
2023/05/28 08:14:27;;;;;;;;;;;;;;;;;;5067804;28;19962;-58
2023/05/28 08:16:53;;;;;;;;;;;;;;;;;;5068193;28;19955;-56
2023/05/28 08:19:20;;;;;;;;;;;;;;;;;;5062420;28;19985;-57
2023/05/28 08:21:46;;;;;;;;;;;;;;;;;;5061835;28;19908;-56
2023/05/28 08:24:12;;;;;;;;;;;;;;;;;;5063132;28;20003;-56
2023/05/28 08:26:38;;;;;;;;;;;;;;;;;;5066410;28;20015;-56
2023/05/28 08:29:04;;;;;;;;;;;;;;;;;;5055151;28;19948;-56
2023/05/28 08:31:30;;;;;;;;;;;;;;;;;;5048558;28;19920;-55
2023/05/28 08:33:57;;;;;;;;;;;;;;;;;;5047702;28;19916;-55
2023/05/28 08:36:23;;;;;;;;;;;;;;;;;;5047229;28;19912;-56
2023/05/28 08:38:49;;;;;;;;;;;;;;;;;;5044671;28;20170;-55
2023/05/28 08:41:15;;;;;;;;;;;;;;;;;;5046378;28;19931;-55
2023/05/28 08:43:41;;;;;;;;;;;;;;;;;;5047802;28;20478;-56
2023/05/28 08:46:07;;;;;;;;;;;;;;;;;;5048267;28;20379;-56
2023/05/28 08:48:33;;;;;;;;;;;;;;;;;;5045847;28;20429;-55
2023/05/28 08:50:59;;;;;;;;;;;;;;;;;;5045802;28;19944;-56
2023/05/28 08:53:29;;;;;;;;;;;;;;;;;;5045659;28;19955;-56
2023/05/28 08:55:55;;;;;;;;;;;;;;;;;;5041241;28;19966;-56
2023/05/28 08:58:21;;;;;;;;;;;;;;;;;;5045242;28;20736;-57
2023/05/28 09:00:47;;;;;;;;;;;;;;;;;;5026801;28;19917;-57
2023/05/28 09:03:12;;;;;;;;;;;;;;;;;;5047138;28;19998;-56
2023/05/28 09:05:38;;;;;;;;;;;;;;;;;;5045927;28;19978;-56
2023/05/28 09:08:04;;;;;;;;;;;;;;;;;;5046142;28;19963;-60
2023/05/28 09:10:33;;;;;;;;;;;;;;;;;;5044505;28;20360;-62
2023/05/28 09:12:59;;;;;;;;;;;;;;;;;;5045136;28;19962;-61
2023/05/28 09:15:25;;;;;;;;;;;;;;;;;;5039820;28;20380;-63
2023/05/28 09:17:51;;;;;;;;;;;;;;;;;;5047327;28;19916;-62
2023/05/28 09:20:17;;;;;;;;;;;;;;;;;;5046416;28;19975;-63
2023/05/28 09:22:43;;;;;;;;;;;;;;;;;;5042521;28;19916;-63
2023/05/28 09:25:09;;;;;;;;;;;;;;;;;;5046421;28;19908;-63
2023/05/28 09:27:35;;;;;;;;;;;;;;;;;;5047181;28;20631;-63
2023/05/28 09:30:01;;;;;;;;;;;;;;;;;;5045454;28;20022;-62
2023/05/28 09:32:27;;;;;;;;;;;;;;;;;;5046931;28;19963;-61
2023/05/28 09:34:53;;;;;;;;;;;;;;;;;;5042890;28;20351;-61
2023/05/28 09:37:19;;;;;;;;;;;;;;;;;;5045627;28;19968;-61
2023/05/28 09:39:45;;;;;;;;;;;;;;;;;;5045053;28;19948;-61
2023/05/28 09:42:13;;;;;;;;;;;;;;;;;;5025195;28;19970;-62
2023/05/28 09:44:39;;;;;;;;;;;;;;;;;;5025556;28;20355;-59
2023/05/28 09:47:05;;;;;;;;;;;;;;;;;;5038540;28;20288;-59
2023/05/28 09:49:31;;;;;;;;;;;;;;;;;;5044254;28;20216;-61
2023/05/28 09:51:57;;;;;;;;;;;;;;;;;;5045096;28;19982;-62
2023/05/28 09:54:24;;;;;;;;;;;;;;;;;;5044293;28;20006;-61
2023/05/28 09:56:50;;;;;;;;;;;;;;;;;;5043786;28;20001;-61
2023/05/28 09:59:16;;;;;;;;;;;;;;;;;;5045177;28;19963;-61
2023/05/28 10:01:43;;;;;;;;;;;;;;;;;;5045286;28;19915;-63
2023/05/28 10:04:09;;;;;;;;;;;;;;;;;;5043944;28;19995;-61
2023/05/28 10:06:38;;;;;;;;;;;;;;;;;;5045403;28;20489;-61
2023/05/28 10:09:04;;;;;;;;;;;;;;;;;;5043907;28;19909;-61
2023/05/28 10:11:31;;;;;;;;;;;;;;;;;;5037450;28;20299;-61
2023/05/28 10:13:57;;;;;;;;;;;;;;;;;;5046156;28;20368;-62
2023/05/28 10:16:23;;;;;;;;;;;;;;;;;;5044511;28;20355;-62
2023/05/28 10:18:52;;;;;;;;;;;;;;;;;;5020772;28;19951;-63
2023/05/28 10:21:19;;;;;;;;;;;;;;;;;;5043704;28;20388;-63
2023/05/28 10:23:45;;;;;;;;;;;;;;;;;;5040258;28;19917;-64
2023/05/28 10:26:11;;;;;;;;;;;;;;;;;;5040593;28;19956;-64
2023/05/28 10:28:38;;;;;;;;;;;;;;;;;;5048290;28;19924;-62
2023/05/28 10:31:04;;;;;;;;;;;;;;;;;;5044076;28;19916;-62
2023/05/28 10:33:31;;;;;;;;;;;;;;;;;;5041717;28;19920;-61
2023/05/28 10:35:57;;;;;;;;;;;;;;;;;;5039644;28;19913;-62
2023/05/28 10:38:23;;;;;;;;;;;;;;;;;;5041962;28;20314;-63
2023/05/28 10:40:49;;;;;;;;;;;;;;;;;;5038135;28;20416;-63
2023/05/28 10:43:15;;;;;;;;;;;;;;;;;;5040536;28;19957;-64
2023/05/28 10:45:42;;;;;;;;;;;;;;;;;;5047372;28;19967;-63
2023/05/28 10:48:08;;;;;;;;;;;;;;;;;;5047896;28;20367;-63
2023/05/28 10:50:34;;;;;;;;;;;;;;;;;;5046322;28;19916;-60
2023/05/28 10:53:00;;;;;;;;;;;;;;;;;;5042677;28;19955;-59
2023/05/28 10:55:26;;;;;;;;;;;;;;;;;;5041500;28;20354;-58
2023/05/28 10:57:52;;;;;;;;;;;;;;;;;;5041837;28;19930;-58
2023/05/28 11:00:18;;;;;;;;;;;;;;;;;;5044732;28;20196;-58
2023/05/28 11:02:45;;;;;;;;;;;;;;;;;;5045061;28;19909;-58
2023/05/28 11:05:11;;;;;;;;;;;;;;;;;;5048370;28;20050;-58
2023/05/28 11:07:37;;;;;;;;;;;;;;;;;;5048262;28;19944;-58
2023/05/28 11:10:03;;;;;;;;;;;;;;;;;;5046398;28;19951;-58
2023/05/28 11:12:29;;;;;;;;;;;;;;;;;;5045840;28;20554;-58
2023/05/28 11:14:55;;;;;;;;;;;;;;;;;;5045502;28;19927;-58
2023/05/28 11:17:21;;;;;;;;;;;;;;;;;;5046930;28;20042;-58
2023/05/28 11:19:47;;;;;;;;;;;;;;;;;;5047749;28;19912;-58
2023/05/28 11:22:13;;;;;;;;;;;;;;;;;;5047600;28;20335;-58
2023/05/28 11:24:40;;;;;;;;;;;;;;;;;;5041051;28;19998;-61
2023/05/28 11:27:06;;;;;;;;;;;;;;;;;;5039866;28;19975;-60
2023/05/28 11:29:32;;;;;;;;;;;;;;;;;;5036643;28;19962;-61
2023/05/28 11:31:58;;;;;;;;;;;;;;;;;;5057050;28;20005;-60
2023/05/28 11:34:24;;;;;;;;;;;;;;;;;;5067928;28;20010;-61
2023/05/28 11:36:51;;;;;;;;;;;;;;;;;;5067406;28;19912;-61
2023/05/28 11:39:17;;;;;;;;;;;;;;;;;;5070099;28;20299;-60
2023/05/28 11:41:44;;;;;;;;;;;;;;;;;;5066187;28;19908;-60
2023/05/28 11:44:10;;;;;;;;;;;;;;;;;;5067521;28;20289;-59
2023/05/28 11:46:36;;;;;;;;;;;;;;;;;;5067578;28;19912;-61
2023/05/28 11:49:04;;;;;;;;;;;;;;;;;;5064569;28;20034;-60
2023/05/28 11:51:30;;;;;;;;;;;;;;;;;;5064202;28;19912;-60
2023/05/28 11:53:56;;;;;;;;;;;;;;;;;;5066306;28;19916;-60
2023/05/28 11:56:22;;;;;;;;;;;;;;;;;;5063920;28;19908;-60
2023/05/28 11:58:49;;;;;;;;;;;;;;;;;;5066997;28;19936;-60
2023/05/28 12:01:15;;;;;;;;;;;;;;;;;;5065852;28;20042;-60
2023/05/28 12:03:41;;;;;;;;;;;;;;;;;;5066413;28;19920;-60
2023/05/28 12:06:07;;;;;;;;;;;;;;;;;;5067162;28;19908;-60
2023/05/28 12:08:33;;;;;;;;;;;;;;;;;;5065547;28;19923;-60
2023/05/28 12:10:59;;;;;;;;;;;;;;;;;;5065495;28;19986;-59
2023/05/28 12:13:25;;;;;;;;;;;;;;;;;;5063613;28;19966;-60
2023/05/28 12:15:51;;;;;;;;;;;;;;;;;;5066799;28;19967;-59
2023/05/28 12:18:20;;;;;;;;;;;;;;;;;;5066527;28;19959;-59
2023/05/28 12:20:46;;;;;;;;;;;;;;;;;;5064559;28;19950;-60
2023/05/28 12:23:12;;;;;;;;;;;;;;;;;;5067273;28;19934;-60
2023/05/28 12:25:38;;;;;;;;;;;;;;;;;;5063662;28;20494;-60
2023/05/28 12:28:04;;;;;;;;;;;;;;;;;;5066028;28;19966;-60
2023/05/28 12:30:30;;;;;;;;;;;;;;;;;;5063660;28;19936;-59
2023/05/28 12:32:56;;;;;;;;;;;;;;;;;;5056268;28;19920;-60
2023/05/28 12:35:22;;;;;;;;;;;;;;;;;;5046313;28;20368;-59
2023/05/28 12:37:48;;;;;;;;;;;;;;;;;;5041162;28;19913;-59
2023/05/28 12:40:14;;;;;;;;;;;;;;;;;;5045826;28;20472;-59
2023/05/28 12:42:40;;;;;;;;;;;;;;;;;;5044510;28;20003;-59
2023/05/28 12:45:06;;;;;;;;;;;;;;;;;;5045775;28;19948;-59
2023/05/28 12:47:32;;;;;;;;;;;;;;;;;;5047082;28;19959;-60
2023/05/28 12:49:58;;;;;;;;;;;;;;;;;;5045255;28;19959;-59
2023/05/28 12:52:24;;;;;;;;;;;;;;;;;;5041584;28;20402;-59
2023/05/28 12:54:50;;;;;;;;;;;;;;;;;;5045662;28;20003;-60
2023/05/28 12:57:16;;;;;;;;;;;;;;;;;;5045472;28;20531;-60
2023/05/28 12:59:42;;;;;;;;;;;;;;;;;;5046325;28;19913;-61
2023/05/28 13:02:08;;;;;;;;;;;;;;;;;;5046088;28;19947;-61
2023/05/28 13:04:34;;;;;;;;;;;;;;;;;;5047016;28;19940;-60
2023/05/28 13:07:01;;;;;;;;;;;;;;;;;;5027059;28;19908;-60
2023/05/28 13:09:27;;;;;;;;;;;;;;;;;;5045345;28;19909;-60
2023/05/28 13:11:53;;;;;;;;;;;;;;;;;;5045381;28;19998;-60
2023/05/28 13:14:19;;;;;;;;;;;;;;;;;;5029077;28;19944;-61
2023/05/28 13:16:45;;;;;;;;;;;;;;;;;;5045383;28;19916;-60
2023/05/28 13:19:11;;;;;;;;;;;;;;;;;;5047060;28;20359;-61
2023/05/28 13:21:37;;;;;;;;;;;;;;;;;;5045857;28;20006;-61
2023/05/28 13:24:03;;;;;;;;;;;;;;;;;;5046691;28;19999;-61
2023/05/28 13:26:29;;;;;;;;;;;;;;;;;;5043666;28;20017;-61
2023/05/28 13:28:55;;;;;;;;;;;;;;;;;;5028919;28;20398;-60
2023/05/28 13:31:21;;;;;;;;;;;;;;;;;;5045518;28;19936;-61
2023/05/28 13:33:47;;;;;;;;;;;;;;;;;;5044655;28;19921;-61
2023/05/28 13:36:13;;;;;;;;;;;;;;;;;;5040576;28;20339;-61
2023/05/28 13:38:39;;;;;;;;;;;;;;;;;;5023043;28;20265;-63
2023/05/28 13:41:05;;;;;;;;;;;;;;;;;;5032637;28;19913;-62
2023/05/28 13:43:31;;;;;;;;;;;;;;;;;;5026536;28;20513;-61
2023/05/28 13:45:59;;;;;;;;;;;;;;;;;;5037915;28;19936;-61
2023/05/28 13:48:25;;;;;;;;;;;;;;;;;;5041751;28;20276;-62
2023/05/28 13:50:51;;;;;;;;;;;;;;;;;;5038610;28;19956;-62
2023/05/28 13:53:17;;;;;;;;;;;;;;;;;;5046855;28;20375;-62
2023/05/28 13:55:43;;;;;;;;;;;;;;;;;;5041456;28;19971;-61
2023/05/28 13:58:09;;;;;;;;;;;;;;;;;;5032745;28;19923;-62
2023/05/28 14:00:35;;;;;;;;;;;;;;;;;;5038523;28;19916;-62
2023/05/28 14:03:02;;;;;;;;;;;;;;;;;;5036213;28;19943;-62
2023/05/28 14:05:28;;;;;;;;;;;;;;;;;;5042141;28;19909;-62
2023/05/28 14:07:54;;;;;;;;;;;;;;;;;;5047068;28;19925;-62
2023/05/28 14:10:20;;;;;;;;;;;;;;;;;;5047257;28;20372;-61
2023/05/28 14:12:46;;;;;;;;;;;;;;;;;;5046109;28;19913;-62
2023/05/28 14:15:12;;;;;;;;;;;;;;;;;;5046056;28;20295;-62
2023/05/28 14:17:38;;;;;;;;;;;;;;;;;;5047866;28;19944;-63
2023/05/28 14:20:04;;;;;;;;;;;;;;;;;;5045121;28;19973;-62
2023/05/28 14:22:31;;;;;;;;;;;;;;;;;;5043896;28;20095;-63
2023/05/28 14:24:57;;;;;;;;;;;;;;;;;;5048281;28;19932;-64
2023/05/28 14:27:23;;;;;;;;;;;;;;;;;;5041475;28;19920;-61
2023/05/28 14:29:49;;;;;;;;;;;;;;;;;;5043814;28;19963;-62
2023/05/28 14:32:15;;;;;;;;;;;;;;;;;;5039116;28;20241;-62
2023/05/28 14:34:41;;;;;;;;;;;;;;;;;;5042228;28;19971;-63
2023/05/28 14:37:07;;;;;;;;;;;;;;;;;;5046188;28;19983;-62
2023/05/28 14:39:33;;;;;;;;;;;;;;;;;;5047171;28;19966;-63
2023/05/28 14:41:59;;;;;;;;;;;;;;;;;;5048756;28;19970;-62
2023/05/28 14:44:25;;;;;;;;;;;;;;;;;;5049387;28;19966;-62
2023/05/28 14:46:51;;;;;;;;;;;;;;;;;;5029562;28;20353;-62
2023/05/28 14:49:17;;;;;;;;;;;;;;;;;;5031243;28;20292;-62
2023/05/28 14:51:43;;;;;;;;;;;;;;;;;;5047972;28;19959;-62
2023/05/28 14:54:09;;;;;;;;;;;;;;;;;;5044967;28;19920;-62
2023/05/28 14:56:35;;;;;;;;;;;;;;;;;;5044901;28;19938;-62
2023/05/28 14:59:02;;;;;;;;;;;;;;;;;;5048802;28;19912;-62
2023/05/28 15:01:28;;;;;;;;;;;;;;;;;;5046014;28;19920;-63
2023/05/28 15:03:54;;;;;;;;;;;;;;;;;;5047518;28;19952;-63
2023/05/28 15:06:20;;;;;;;;;;;;;;;;;;5044825;28;19955;-62
2023/05/28 15:08:45;;;;;;;;;;;;;;;;;;5049716;28;20331;-62
2023/05/28 15:11:12;;;;;;;;;;;;;;;;;;5042815;28;20041;-60
2023/05/28 15:13:38;;;;;;;;;;;;;;;;;;5046946;28;19955;-62
2023/05/28 15:16:03;;;;;;;;;;;;;;;;;;5046414;28;19943;-61
2023/05/28 15:18:29;;;;;;;;;;;;;;;;;;5046512;28;20415;-61
2023/05/28 15:20:55;;;;;;;;;;;;;;;;;;5041962;28;19952;-60
2023/05/28 15:23:21;;;;;;;;;;;;;;;;;;5046749;28;19908;-61
2023/05/28 15:25:48;;;;;;;;;;;;;;;;;;5046602;28;19919;-62
2023/05/28 15:28:14;;;;;;;;;;;;;;;;;;5047378;28;19932;-60
2023/05/28 15:30:40;;;;;;;;;;;;;;;;;;5046551;28;20437;-60
2023/05/28 15:33:06;;;;;;;;;;;;;;;;;;5045434;28;19966;-61
2023/05/28 15:35:32;;;;;;;;;;;;;;;;;;5045987;28;20378;-61
2023/05/28 15:37:59;;;;;;;;;;;;;;;;;;5045311;28;19932;-62
2023/05/28 15:40:25;;;;;;;;;;;;;;;;;;5042842;28;20371;-61
2023/05/28 15:42:51;;;;;;;;;;;;;;;;;;5040322;28;20237;-60
2023/05/28 15:45:17;;;;;;;;;;;;;;;;;;5046780;28;20676;-60
2023/05/28 15:47:44;;;;;;;;;;;;;;;;;;5022929;28;20369;-61
2023/05/28 15:50:10;;;;;;;;;;;;;;;;;;5038012;28;20045;-60
2023/05/28 15:52:36;;;;;;;;;;;;;;;;;;5027469;28;19912;-61
2023/05/28 15:55:03;;;;;;;;;;;;;;;;;;5036249;28;19917;-61
2023/05/28 15:57:29;;;;;;;;;;;;;;;;;;5039024;28;20355;-59
2023/05/28 15:59:55;;;;;;;;;;;;;;;;;;5046730;28;20004;-60
2023/05/28 16:02:21;;;;;;;;;;;;;;;;;;5042330;28;20491;-61
2023/05/28 16:04:47;;;;;;;;;;;;;;;;;;5042018;28;19915;-60
2023/05/28 16:07:13;;;;;;;;;;;;;;;;;;5039029;28;19952;-58
2023/05/28 16:09:39;;;;;;;;;;;;;;;;;;5044225;28;19943;-59
2023/05/28 16:12:05;;;;;;;;;;;;;;;;;;5046817;28;20327;-60
2023/05/28 16:14:31;;;;;;;;;;;;;;;;;;5043912;28;20048;-59
2023/05/28 16:16:57;;;;;;;;;;;;;;;;;;5046499;28;20402;-59
2023/05/28 16:19:23;;;;;;;;;;;;;;;;;;5046960;28;20380;-59
2023/05/28 16:21:49;;;;;;;;;;;;;;;;;;5047138;28;19966;-59
2023/05/28 16:24:17;;;;;;;;;;;;;;;;;;5041965;28;19966;-59
2023/05/28 16:26:42;;;;;;;;;;;;;;;;;;5042074;28;20020;-60
2023/05/28 16:29:08;;;;;;;;;;;;;;;;;;5047593;28;20354;-60
2023/05/28 16:31:36;;;;;;;;;;;;;;;;;;5044221;28;20494;-60
2023/05/28 16:34:02;;;;;;;;;;;;;;;;;;5046027;28;19920;-60
2023/05/28 16:36:28;;;;;;;;;;;;;;;;;;5038963;28;20407;-60
2023/05/28 16:38:54;;;;;;;;;;;;;;;;;;5045088;28;19940;-60